sensor_id;sensor_type;location;lat;lon;timestamp;pressure;altitude;pressure_sealevel;temperature;humidity
58668;BME280;59852;43.086;25.634;2022-09-09T00:00:22;98872.16;;;21.50;49.64
58668;BME280;59852;43.086;25.634;2022-09-09T00:03:11;98870.25;;;21.58;49.80
58668;BME280;59852;43.086;25.634;2022-09-09T00:05:38;98867.88;;;21.40;49.98
58668;BME280;59852;43.086;25.634;2022-09-09T00:08:11;98868.47;;;21.51;50.65
58668;BME280;59852;43.086;25.634;2022-09-09T00:10:40;98866.56;;;21.36;49.63
58668;BME280;59852;43.086;25.634;2022-09-09T00:13:13;98874.19;;;21.39;50.09
58668;BME280;59852;43.086;25.634;2022-09-09T00:18:17;98881.59;;;21.52;49.72
58668;BME280;59852;43.086;25.634;2022-09-09T00:20:57;98878.91;;;21.29;50.46
58668;BME280;59852;43.086;25.634;2022-09-09T00:23:30;98883.75;;;21.17;50.05
58668;BME280;59852;43.086;25.634;2022-09-09T00:26:04;98888.09;;;21.18;50.59
58668;BME280;59852;43.086;25.634;2022-09-09T00:28:30;98882.59;;;21.20;49.72
58668;BME280;59852;43.086;25.634;2022-09-09T00:31:18;98883.06;;;21.24;49.66
58668;BME280;59852;43.086;25.634;2022-09-09T00:33:45;98880.56;;;21.22;49.85
58668;BME280;59852;43.086;25.634;2022-09-09T00:36:16;98879.47;;;21.08;50.00
58668;BME280;59852;43.086;25.634;2022-09-09T00:38:51;98867.44;;;21.29;50.48
58668;BME280;59852;43.086;25.634;2022-09-09T00:41:55;98872.59;;;21.22;48.92
58668;BME280;59852;43.086;25.634;2022-09-09T00:44:30;98858.22;;;21.08;49.30
58668;BME280;59852;43.086;25.634;2022-09-09T00:52:05;98872.13;;;21.27;49.32
58668;BME280;59852;43.086;25.634;2022-09-09T00:59:46;98870.28;;;21.19;50.22
58668;BME280;59852;43.086;25.634;2022-09-09T01:04:47;98867.47;;;21.12;49.84
58668;BME280;59852;43.086;25.634;2022-09-09T01:07:15;98857.56;;;21.06;50.46
58668;BME280;59852;43.086;25.634;2022-09-09T01:09:45;98863.06;;;21.05;50.32
58668;BME280;59852;43.086;25.634;2022-09-09T01:12:17;98861.91;;;20.99;50.10
58668;BME280;59852;43.086;25.634;2022-09-09T01:14:47;98854.94;;;20.98;50.59
58668;BME280;59852;43.086;25.634;2022-09-09T01:27:35;98864.94;;;20.88;50.54
58668;BME280;59852;43.086;25.634;2022-09-09T01:30:04;98857.31;;;20.85;51.04
58668;BME280;59852;43.086;25.634;2022-09-09T01:32:45;98854.84;;;20.75;50.85
58668;BME280;59852;43.086;25.634;2022-09-09T01:37:56;98860.66;;;20.79;51.74
58668;BME280;59852;43.086;25.634;2022-09-09T01:40:22;98861.00;;;20.76;51.33
58668;BME280;59852;43.086;25.634;2022-09-09T01:42:48;98864.25;;;20.47;51.62
58668;BME280;59852;43.086;25.634;2022-09-09T01:45:13;98858.06;;;20.54;51.59
58668;BME280;59852;43.086;25.634;2022-09-09T01:47:38;98855.72;;;20.59;52.01
58668;BME280;59852;43.086;25.634;2022-09-09T01:50:04;98860.22;;;20.59;51.45
58668;BME280;59852;43.086;25.634;2022-09-09T01:52:32;98859.88;;;20.62;51.33
58668;BME280;59852;43.086;25.634;2022-09-09T01:55:01;98860.22;;;20.51;52.12
58668;BME280;59852;43.086;25.634;2022-09-09T01:57:33;98856.53;;;20.68;51.53
58668;BME280;59852;43.086;25.634;2022-09-09T02:00:05;98867.53;;;20.57;50.96
58668;BME280;59852;43.086;25.634;2022-09-09T02:05:16;98866.03;;;20.38;53.41
58668;BME280;59852;43.086;25.634;2022-09-09T02:07:50;98863.41;;;20.30;53.21
58668;BME280;59852;43.086;25.634;2022-09-09T02:10:20;98861.34;;;20.65;52.00
58668;BME280;59852;43.086;25.634;2022-09-09T02:13:02;98853.88;;;20.68;51.88
58668;BME280;59852;43.086;25.634;2022-09-09T02:15:30;98855.91;;;20.42;52.89
58668;BME280;59852;43.086;25.634;2022-09-09T02:17:58;98852.28;;;20.43;52.42
58668;BME280;59852;43.086;25.634;2022-09-09T02:20:26;98854.59;;;20.38;52.06
58668;BME280;59852;43.086;25.634;2022-09-09T02:22:53;98849.94;;;20.23;52.35
58668;BME280;59852;43.086;25.634;2022-09-09T02:25:22;98853.78;;;20.29;51.98
58668;BME280;59852;43.086;25.634;2022-09-09T02:27:49;98848.63;;;20.36;51.75
58668;BME280;59852;43.086;25.634;2022-09-09T02:30:15;98849.44;;;20.44;50.71
58668;BME280;59852;43.086;25.634;2022-09-09T02:32:41;98849.75;;;20.41;51.35
58668;BME280;59852;43.086;25.634;2022-09-09T02:35:08;98843.78;;;20.39;51.39
58668;BME280;59852;43.086;25.634;2022-09-09T02:37:36;98838.97;;;20.51;50.41
58668;BME280;59852;43.086;25.634;2022-09-09T02:40:03;98851.41;;;20.42;51.99
58668;BME280;59852;43.086;25.634;2022-09-09T02:42:29;98851.13;;;20.45;52.34
58668;BME280;59852;43.086;25.634;2022-09-09T02:44:55;98842.81;;;20.48;52.35
58668;BME280;59852;43.086;25.634;2022-09-09T02:47:30;98846.97;;;20.18;52.31
58668;BME280;59852;43.086;25.634;2022-09-09T02:52:26;98851.78;;;20.47;52.67
58668;BME280;59852;43.086;25.634;2022-09-09T02:54:55;98843.31;;;20.36;54.23
58668;BME280;59852;43.086;25.634;2022-09-09T02:57:24;98844.78;;;20.38;54.49
58668;BME280;59852;43.086;25.634;2022-09-09T02:59:50;98848.63;;;20.19;54.34
58668;BME280;59852;43.086;25.634;2022-09-09T03:02:17;98840.53;;;19.96;53.61
58668;BME280;59852;43.086;25.634;2022-09-09T03:04:43;98835.69;;;20.16;53.49
58668;BME280;59852;43.086;25.634;2022-09-09T03:07:09;98835.38;;;19.79;54.04
58668;BME280;59852;43.086;25.634;2022-09-09T03:09:35;98841.84;;;19.92;53.56
58668;BME280;59852;43.086;25.634;2022-09-09T03:12:00;98842.19;;;19.97;52.58
58668;BME280;59852;43.086;25.634;2022-09-09T03:14:26;98841.84;;;20.00;52.52
58668;BME280;59852;43.086;25.634;2022-09-09T03:16:52;98836.38;;;19.94;52.38
58668;BME280;59852;43.086;25.634;2022-09-09T03:19:17;98825.75;;;19.94;52.53
58668;BME280;59852;43.086;25.634;2022-09-09T03:21:44;98827.25;;;19.80;53.08
58668;BME280;59852;43.086;25.634;2022-09-09T03:24:09;98831.41;;;19.91;52.95
58668;BME280;59852;43.086;25.634;2022-09-09T03:26:35;98830.06;;;19.95;53.03
58668;BME280;59852;43.086;25.634;2022-09-09T03:29:00;98826.91;;;19.99;53.06
58668;BME280;59852;43.086;25.634;2022-09-09T03:31:26;98831.88;;;19.94;52.48
58668;BME280;59852;43.086;25.634;2022-09-09T03:33:51;98835.72;;;19.67;52.99
58668;BME280;59852;43.086;25.634;2022-09-09T03:36:16;98838.03;;;19.70;52.91
58668;BME280;59852;43.086;25.634;2022-09-09T03:38:42;98837.19;;;19.70;53.29
58668;BME280;59852;43.086;25.634;2022-09-09T03:41:07;98843.00;;;19.82;53.66
58668;BME280;59852;43.086;25.634;2022-09-09T03:43:33;98845.19;;;19.86;53.74
58668;BME280;59852;43.086;25.634;2022-09-09T03:45:58;98846.81;;;19.79;53.04
58668;BME280;59852;43.086;25.634;2022-09-09T03:48:24;98850.78;;;19.59;53.44
58668;BME280;59852;43.086;25.634;2022-09-09T03:50:50;98846.47;;;19.66;53.07
58668;BME280;59852;43.086;25.634;2022-09-09T03:53:17;98848.28;;;19.65;53.32
58668;BME280;59852;43.086;25.634;2022-09-09T03:55:48;98844.50;;;19.68;52.40
58668;BME280;59852;43.086;25.634;2022-09-09T03:58:14;98844.19;;;19.79;52.12
58668;BME280;59852;43.086;25.634;2022-09-09T04:00:40;98847.81;;;19.78;52.58
58668;BME280;59852;43.086;25.634;2022-09-09T04:03:08;98850.81;;;19.91;52.09
58668;BME280;59852;43.086;25.634;2022-09-09T04:05:34;98843.50;;;19.69;53.10
58668;BME280;59852;43.086;25.634;2022-09-09T04:08:00;98845.31;;;19.85;51.35
58668;BME280;59852;43.086;25.634;2022-09-09T04:10:26;98854.44;;;19.66;52.89
58668;BME280;59852;43.086;25.634;2022-09-09T04:12:51;98860.75;;;19.73;52.84
58668;BME280;59852;43.086;25.634;2022-09-09T04:15:17;98863.59;;;19.80;51.28
58668;BME280;59852;43.086;25.634;2022-09-09T04:17:43;98863.41;;;19.89;52.76
58668;BME280;59852;43.086;25.634;2022-09-09T04:20:08;98855.13;;;20.00;51.94
58668;BME280;59852;43.086;25.634;2022-09-09T04:22:36;98857.78;;;20.17;53.04
58668;BME280;59852;43.086;25.634;2022-09-09T04:25:03;98855.44;;;20.46;53.07
58668;BME280;59852;43.086;25.634;2022-09-09T04:27:29;98857.59;;;20.43;53.35
58668;BME280;59852;43.086;25.634;2022-09-09T04:29:54;98858.09;;;20.30;51.99
58668;BME280;59852;43.086;25.634;2022-09-09T04:32:21;98859.44;;;20.26;50.58
58668;BME280;59852;43.086;25.634;2022-09-09T04:34:47;98863.22;;;20.48;52.13
58668;BME280;59852;43.086;25.634;2022-09-09T04:37:12;98861.22;;;20.42;49.85
58668;BME280;59852;43.086;25.634;2022-09-09T04:39:39;98868.84;;;20.53;52.36
58668;BME280;59852;43.086;25.634;2022-09-09T04:42:04;98869.84;;;20.60;52.30
58668;BME280;59852;43.086;25.634;2022-09-09T04:44:29;98867.34;;;20.67;51.61
58668;BME280;59852;43.086;25.634;2022-09-09T04:46:55;98867.78;;;20.78;52.82
58668;BME280;59852;43.086;25.634;2022-09-09T04:49:21;98863.13;;;20.80;51.61
58668;BME280;59852;43.086;25.634;2022-09-09T04:51:48;98868.28;;;20.82;50.92
58668;BME280;59852;43.086;25.634;2022-09-09T04:54:14;98873.56;;;20.90;50.80
58668;BME280;59852;43.086;25.634;2022-09-09T04:56:39;98871.50;;;21.08;50.50
58668;BME280;59852;43.086;25.634;2022-09-09T04:59:06;98870.84;;;21.06;51.55
58668;BME280;59852;43.086;25.634;2022-09-09T05:01:31;98863.09;;;20.97;50.78
58668;BME280;59852;43.086;25.634;2022-09-09T05:03:57;98881.31;;;21.08;52.87
58668;BME280;59852;43.086;25.634;2022-09-09T05:06:23;98882.31;;;21.07;53.42
58668;BME280;59852;43.086;25.634;2022-09-09T05:08:48;98878.91;;;21.21;52.63
58668;BME280;59852;43.086;25.634;2022-09-09T05:11:17;98884.88;;;21.31;47.98
58668;BME280;59852;43.086;25.634;2022-09-09T05:13:43;98882.81;;;21.41;48.21
58668;BME280;59852;43.086;25.634;2022-09-09T05:16:09;98884.13;;;21.54;49.22
58668;BME280;59852;43.086;25.634;2022-09-09T05:18:36;98880.59;;;21.53;48.12
58668;BME280;59852;43.086;25.634;2022-09-09T05:21:02;98878.25;;;21.58;48.05
58668;BME280;59852;43.086;25.634;2022-09-09T05:23:27;98873.53;;;21.68;48.72
58668;BME280;59852;43.086;25.634;2022-09-09T05:25:56;98871.41;;;21.64;46.97
58668;BME280;59852;43.086;25.634;2022-09-09T05:28:22;98867.06;;;21.63;48.25
58668;BME280;59852;43.086;25.634;2022-09-09T05:30:56;98864.16;;;21.50;47.87
58668;BME280;59852;43.086;25.634;2022-09-09T05:33:22;98871.28;;;21.57;52.28
58668;BME280;59852;43.086;25.634;2022-09-09T05:35:47;98866.94;;;21.56;49.49
58668;BME280;59852;43.086;25.634;2022-09-09T05:38:13;98867.38;;;21.68;48.24
58668;BME280;59852;43.086;25.634;2022-09-09T05:40:39;98860.91;;;21.62;47.45
58668;BME280;59852;43.086;25.634;2022-09-09T05:43:04;98860.53;;;21.73;47.81
58668;BME280;59852;43.086;25.634;2022-09-09T05:45:29;98854.38;;;21.73;50.33
58668;BME280;59852;43.086;25.634;2022-09-09T05:47:55;98840.88;;;21.74;47.34
58668;BME280;59852;43.086;25.634;2022-09-09T05:50:20;98846.78;;;21.85;46.86
58668;BME280;59852;43.086;25.634;2022-09-09T05:52:45;98842.50;;;21.98;46.84
58668;BME280;59852;43.086;25.634;2022-09-09T05:55:11;98847.56;;;21.93;46.98
58668;BME280;59852;43.086;25.634;2022-09-09T05:57:36;98843.63;;;21.81;47.19
58668;BME280;59852;43.086;25.634;2022-09-09T06:00:02;98852.28;;;21.60;48.28
58668;BME280;59852;43.086;25.634;2022-09-09T06:02:27;98856.06;;;21.89;48.37
58668;BME280;59852;43.086;25.634;2022-09-09T06:04:53;98851.03;;;21.94;48.64
58668;BME280;59852;43.086;25.634;2022-09-09T06:07:18;98843.63;;;22.04;47.45
58668;BME280;59852;43.086;25.634;2022-09-09T06:09:43;98850.38;;;22.15;47.47
58668;BME280;59852;43.086;25.634;2022-09-09T06:12:09;98842.91;;;22.10;47.24
58668;BME280;59852;43.086;25.634;2022-09-09T06:14:35;98846.28;;;22.27;46.80
58668;BME280;59852;43.086;25.634;2022-09-09T06:17:00;98838.66;;;22.24;47.41
58668;BME280;59852;43.086;25.634;2022-09-09T06:19:26;98845.63;;;22.25;48.00
58668;BME280;59852;43.086;25.634;2022-09-09T06:21:51;98830.56;;;22.32;47.44
58668;BME280;59852;43.086;25.634;2022-09-09T06:24:17;98833.88;;;22.34;47.19
58668;BME280;59852;43.086;25.634;2022-09-09T06:26:44;98835.91;;;22.47;47.56
58668;BME280;59852;43.086;25.634;2022-09-09T06:29:10;98833.44;;;22.45;46.73
58668;BME280;59852;43.086;25.634;2022-09-09T06:31:36;98817.81;;;22.42;46.33
58668;BME280;59852;43.086;25.634;2022-09-09T06:34:03;98827.34;;;22.51;46.38
58668;BME280;59852;43.086;25.634;2022-09-09T06:36:33;98840.88;;;22.65;45.29
58668;BME280;59852;43.086;25.634;2022-09-09T06:38:59;98841.63;;;22.73;45.55
58668;BME280;59852;43.086;25.634;2022-09-09T06:41:25;98838.00;;;22.81;45.22
58668;BME280;59852;43.086;25.634;2022-09-09T06:43:51;98839.16;;;22.86;44.41
58668;BME280;59852;43.086;25.634;2022-09-09T06:46:18;98836.00;;;22.98;44.80
58668;BME280;59852;43.086;25.634;2022-09-09T06:48:44;98838.03;;;22.96;44.68
58668;BME280;59852;43.086;25.634;2022-09-09T06:51:14;98826.50;;;23.10;44.15
58668;BME280;59852;43.086;25.634;2022-09-09T06:53:40;98825.31;;;23.12;45.80
58668;BME280;59852;43.086;25.634;2022-09-09T06:58:34;98829.28;;;23.38;44.72
58668;BME280;59852;43.086;25.634;2022-09-09T07:01:03;98825.66;;;23.45;45.08
58668;BME280;59852;43.086;25.634;2022-09-09T07:03:29;98821.97;;;23.61;44.21
58668;BME280;59852;43.086;25.634;2022-09-09T07:05:55;98823.63;;;23.62;43.55
58668;BME280;59852;43.086;25.634;2022-09-09T07:08:21;98825.03;;;23.80;44.20
58668;BME280;59852;43.086;25.634;2022-09-09T07:10:46;98816.53;;;23.97;43.86
58668;BME280;59852;43.086;25.634;2022-09-09T07:13:12;98824.59;;;24.04;43.48
58668;BME280;59852;43.086;25.634;2022-09-09T07:15:41;98817.84;;;24.08;44.38
58668;BME280;59852;43.086;25.634;2022-09-09T07:18:06;98814.19;;;24.16;43.84
58668;BME280;59852;43.086;25.634;2022-09-09T07:20:31;98824.13;;;24.22;43.10
58668;BME280;59852;43.086;25.634;2022-09-09T07:22:57;98820.47;;;24.29;42.84
58668;BME280;59852;43.086;25.634;2022-09-09T07:25:24;98813.66;;;24.48;40.96
58668;BME280;59852;43.086;25.634;2022-09-09T07:27:53;98812.84;;;24.54;43.30
58668;BME280;59852;43.086;25.634;2022-09-09T07:30:18;98813.91;;;24.67;42.13
58668;BME280;59852;43.086;25.634;2022-09-09T07:32:44;98818.50;;;24.73;42.23
58668;BME280;59852;43.086;25.634;2022-09-09T07:35:09;98819.63;;;24.92;42.23
58668;BME280;59852;43.086;25.634;2022-09-09T07:37:36;98818.53;;;25.21;41.87
58668;BME280;59852;43.086;25.634;2022-09-09T07:40:01;98819.13;;;25.23;40.83
58668;BME280;59852;43.086;25.634;2022-09-09T07:42:29;98810.69;;;25.19;42.09
58668;BME280;59852;43.086;25.634;2022-09-09T07:44:55;98811.97;;;25.43;42.81
58668;BME280;59852;43.086;25.634;2022-09-09T07:47:20;98813.47;;;25.59;40.65
58668;BME280;59852;43.086;25.634;2022-09-09T07:49:46;98816.56;;;25.76;43.29
58668;BME280;59852;43.086;25.634;2022-09-09T07:52:11;98812.88;;;25.83;41.25
58668;BME280;59852;43.086;25.634;2022-09-09T07:54:37;98826.28;;;25.77;40.42
58668;BME280;59852;43.086;25.634;2022-09-09T07:57:05;98817.63;;;25.88;41.81
58668;BME280;59852;43.086;25.634;2022-09-09T07:59:30;98812.28;;;26.08;40.38
58668;BME280;59852;43.086;25.634;2022-09-09T08:01:55;98813.06;;;26.21;38.01
58668;BME280;59852;43.086;25.634;2022-09-09T08:04:22;98814.94;;;26.14;42.72
58668;BME280;59852;43.086;25.634;2022-09-09T08:06:52;98825.66;;;26.27;39.08
58668;BME280;59852;43.086;25.634;2022-09-09T08:09:20;98817.19;;;26.44;38.81
58668;BME280;59852;43.086;25.634;2022-09-09T08:11:47;98817.41;;;26.49;38.38
58668;BME280;59852;43.086;25.634;2022-09-09T08:14:12;98824.16;;;26.71;38.82
58668;BME280;59852;43.086;25.634;2022-09-09T08:16:42;98815.88;;;26.73;38.55
58668;BME280;59852;43.086;25.634;2022-09-09T08:19:08;98814.84;;;26.80;39.45
58668;BME280;59852;43.086;25.634;2022-09-09T08:21:34;98814.00;;;26.80;37.01
58668;BME280;59852;43.086;25.634;2022-09-09T08:24:02;98804.53;;;26.77;37.49
58668;BME280;59852;43.086;25.634;2022-09-09T08:26:28;98806.91;;;26.99;36.46
58668;BME280;59852;43.086;25.634;2022-09-09T08:28:54;98797.00;;;27.06;37.51
58668;BME280;59852;43.086;25.634;2022-09-09T08:31:28;98790.63;;;26.94;37.55
58668;BME280;59852;43.086;25.634;2022-09-09T08:33:53;98781.31;;;27.03;36.85
58668;BME280;59852;43.086;25.634;2022-09-09T08:36:20;98779.63;;;27.15;36.84
58668;BME280;59852;43.086;25.634;2022-09-09T08:38:47;98774.41;;;27.20;37.95
58668;BME280;59852;43.086;25.634;2022-09-09T08:43:45;98770.44;;;27.29;37.02
58668;BME280;59852;43.086;25.634;2022-09-09T08:48:47;98779.09;;;27.31;38.13
58668;BME280;59852;43.086;25.634;2022-09-09T08:51:17;98775.44;;;27.26;38.63
58668;BME280;59852;43.086;25.634;2022-09-09T08:53:44;98774.84;;;27.49;35.96
58668;BME280;59852;43.086;25.634;2022-09-09T08:56:13;98774.84;;;27.49;36.73
58668;BME280;59852;43.086;25.634;2022-09-09T08:58:49;98771.00;;;27.63;35.86
58668;BME280;59852;43.086;25.634;2022-09-09T09:01:27;98766.06;;;27.66;37.06
58668;BME280;59852;43.086;25.634;2022-09-09T09:06:37;98758.44;;;27.88;35.93
58668;BME280;59852;43.086;25.634;2022-09-09T09:09:30;98765.09;;;27.86;36.54
58668;BME280;59852;43.086;25.634;2022-09-09T09:12:01;98764.41;;;27.90;35.23
58668;BME280;59852;43.086;25.634;2022-09-09T09:14:31;98767.03;;;27.72;36.33
58668;BME280;59852;43.086;25.634;2022-09-09T09:19:44;98763.88;;;28.07;35.35
58668;BME280;59852;43.086;25.634;2022-09-09T09:27:32;98762.19;;;27.87;36.55
58668;BME280;59852;43.086;25.634;2022-09-09T09:30:20;98757.94;;;27.98;35.94
58668;BME280;59852;43.086;25.634;2022-09-09T09:35:16;98759.00;;;27.97;37.69
58668;BME280;59852;43.086;25.634;2022-09-09T09:37:41;98748.16;;;27.85;36.34
58668;BME280;59852;43.086;25.634;2022-09-09T09:40:09;98753.38;;;27.98;38.01
58668;BME280;59852;43.086;25.634;2022-09-09T09:42:35;98753.34;;;28.05;36.60
58668;BME280;59852;43.086;25.634;2022-09-09T09:45:07;98752.75;;;28.21;36.66
58668;BME280;59852;43.086;25.634;2022-09-09T09:47:33;98756.41;;;28.27;37.18
58668;BME280;59852;43.086;25.634;2022-09-09T09:49:59;98744.16;;;28.13;38.20
58668;BME280;59852;43.086;25.634;2022-09-09T09:52:28;98733.84;;;28.10;36.06
58668;BME280;59852;43.086;25.634;2022-09-09T09:54:54;98735.28;;;28.12;37.51
58668;BME280;59852;43.086;25.634;2022-09-09T09:57:27;98736.34;;;28.29;37.35
58668;BME280;59852;43.086;25.634;2022-09-09T10:00:01;98738.69;;;28.19;38.15
58668;BME280;59852;43.086;25.634;2022-09-09T10:02:37;98733.38;;;28.38;36.39
58668;BME280;59852;43.086;25.634;2022-09-09T10:05:05;98732.09;;;28.40;36.58
58668;BME280;59852;43.086;25.634;2022-09-09T10:07:31;98730.09;;;28.36;36.39
58668;BME280;59852;43.086;25.634;2022-09-09T10:09:57;98724.78;;;28.47;36.79
58668;BME280;59852;43.086;25.634;2022-09-09T10:17:49;98723.81;;;28.42;36.01
58668;BME280;59852;43.086;25.634;2022-09-09T10:23:02;98726.91;;;28.75;38.57
58668;BME280;59852;43.086;25.634;2022-09-09T10:25:35;98726.13;;;28.86;35.56
58668;BME280;59852;43.086;25.634;2022-09-09T10:35:28;98721.81;;;28.85;35.02
58668;BME280;59852;43.086;25.634;2022-09-09T10:40:34;98726.72;;;29.07;34.84
58668;BME280;59852;43.086;25.634;2022-09-09T10:43:13;98726.22;;;28.80;35.29
58668;BME280;59852;43.086;25.634;2022-09-09T10:48:31;98714.53;;;29.04;33.91
58668;BME280;59852;43.086;25.634;2022-09-09T10:56:01;98713.63;;;29.10;35.24
58668;BME280;59852;43.086;25.634;2022-09-09T10:58:31;98702.25;;;29.08;35.51
58668;BME280;59852;43.086;25.634;2022-09-09T11:01:00;98703.44;;;29.12;34.97
58668;BME280;59852;43.086;25.634;2022-09-09T11:03:32;98699.56;;;29.20;35.24
58668;BME280;59852;43.086;25.634;2022-09-09T11:06:04;98703.81;;;29.28;36.42
58668;BME280;59852;43.086;25.634;2022-09-09T11:08:30;98697.63;;;29.27;35.40
58668;BME280;59852;43.086;25.634;2022-09-09T11:13:29;98697.56;;;29.57;33.99
58668;BME280;59852;43.086;25.634;2022-09-09T11:18:48;98696.78;;;29.27;35.40
58668;BME280;59852;43.086;25.634;2022-09-09T11:21:19;98703.03;;;29.39;35.42
58668;BME280;59852;43.086;25.634;2022-09-09T11:23:49;98693.53;;;29.36;35.30
58668;BME280;59852;43.086;25.634;2022-09-09T11:26:18;98696.81;;;29.38;34.40
58668;BME280;59852;43.086;25.634;2022-09-09T11:29:02;98694.50;;;29.42;35.15
58668;BME280;59852;43.086;25.634;2022-09-09T11:34:09;98682.41;;;29.33;35.14
58668;BME280;59852;43.086;25.634;2022-09-09T11:36:46;98690.03;;;29.48;35.17
58668;BME280;59852;43.086;25.634;2022-09-09T11:41:49;98688.09;;;29.55;36.03
58668;BME280;59852;43.086;25.634;2022-09-09T11:44:19;98677.44;;;29.60;34.31
58668;BME280;59852;43.086;25.634;2022-09-09T11:46:46;98666.41;;;29.61;34.48
58668;BME280;59852;43.086;25.634;2022-09-09T11:49:28;98660.31;;;29.78;34.37
58668;BME280;59852;43.086;25.634;2022-09-09T11:51:53;98667.91;;;29.57;34.39
58668;BME280;59852;43.086;25.634;2022-09-09T11:54:32;98662.97;;;29.31;34.86
58668;BME280;59852;43.086;25.634;2022-09-09T11:57:00;98662.25;;;29.47;35.38
58668;BME280;59852;43.086;25.634;2022-09-09T11:59:28;98661.28;;;29.60;35.04
58668;BME280;59852;43.086;25.634;2022-09-09T12:01:58;98652.72;;;29.51;35.02
58668;BME280;59852;43.086;25.634;2022-09-09T12:06:54;98642.88;;;29.03;38.36
58668;BME280;59852;43.086;25.634;2022-09-09T12:09:37;98643.00;;;29.08;35.72
58668;BME280;59852;43.086;25.634;2022-09-09T12:19:39;98631.94;;;29.40;35.11
58668;BME280;59852;43.086;25.634;2022-09-09T12:22:11;98620.53;;;29.03;36.02
58668;BME280;59852;43.086;25.634;2022-09-09T12:32:06;98618.88;;;28.72;37.07
58668;BME280;59852;43.086;25.634;2022-09-09T12:34:40;98617.59;;;29.16;34.75
58668;BME280;59852;43.086;25.634;2022-09-09T12:39:40;98603.31;;;28.74;36.00
58668;BME280;59852;43.086;25.634;2022-09-09T12:42:19;98607.97;;;28.67;35.93
58668;BME280;59852;43.086;25.634;2022-09-09T12:44:58;98604.16;;;28.44;36.47
58668;BME280;59852;43.086;25.634;2022-09-09T12:48:07;98604.81;;;28.40;36.67
58668;BME280;59852;43.086;25.634;2022-09-09T12:50:17;98602.06;;;28.46;36.77
58668;BME280;59852;43.086;25.634;2022-09-09T12:52:43;98601.81;;;28.48;36.73
58668;BME280;59852;43.086;25.634;2022-09-09T12:55:18;98608.44;;;28.34;36.86
58668;BME280;59852;43.086;25.634;2022-09-09T12:57:44;98598.19;;;28.42;37.24
58668;BME280;59852;43.086;25.634;2022-09-09T13:00:21;98598.53;;;28.46;36.61
58668;BME280;59852;43.086;25.634;2022-09-09T13:02:54;98606.09;;;28.37;36.95
58668;BME280;59852;43.086;25.634;2022-09-09T13:05:21;98594.28;;;28.20;37.98
58668;BME280;59852;43.086;25.634;2022-09-09T13:07:47;98596.97;;;28.20;37.62
58668;BME280;59852;43.086;25.634;2022-09-09T13:10:14;98599.09;;;28.18;37.84
58668;BME280;59852;43.086;25.634;2022-09-09T13:12:39;98594.69;;;28.23;37.75
58668;BME280;59852;43.086;25.634;2022-09-09T13:15:10;98595.50;;;28.24;37.14
58668;BME280;59852;43.086;25.634;2022-09-09T13:17:39;98598.84;;;28.19;37.48
58668;BME280;59852;43.086;25.634;2022-09-09T13:20:05;98603.88;;;28.16;37.86
58668;BME280;59852;43.086;25.634;2022-09-09T13:24:58;98605.69;;;28.04;38.92
58668;BME280;59852;43.086;25.634;2022-09-09T13:29:53;98611.72;;;27.99;39.81
58668;BME280;59852;43.086;25.634;2022-09-09T13:32:22;98607.41;;;27.98;39.74
58668;BME280;59852;43.086;25.634;2022-09-09T13:34:51;98610.66;;;28.00;40.61
58668;BME280;59852;43.086;25.634;2022-09-09T13:39:57;98617.25;;;28.04;38.47
58668;BME280;59852;43.086;25.634;2022-09-09T13:42:27;98622.47;;;27.99;41.59
58668;BME280;59852;43.086;25.634;2022-09-09T13:44:53;98614.03;;;27.95;40.52
58668;BME280;59852;43.086;25.634;2022-09-09T13:47:19;98609.31;;;27.91;38.86
58668;BME280;59852;43.086;25.634;2022-09-09T13:49:48;98609.19;;;27.86;39.51
58668;BME280;59852;43.086;25.634;2022-09-09T13:52:17;98607.69;;;27.90;39.17
58668;BME280;59852;43.086;25.634;2022-09-09T13:54:52;98613.28;;;27.88;39.36
58668;BME280;59852;43.086;25.634;2022-09-09T13:57:21;98610.00;;;27.86;39.45
58668;BME280;59852;43.086;25.634;2022-09-09T13:59:47;98605.09;;;27.83;41.86
58668;BME280;59852;43.086;25.634;2022-09-09T14:02:13;98607.16;;;27.81;39.80
58668;BME280;59852;43.086;25.634;2022-09-09T14:04:38;98608.50;;;27.90;39.22
58668;BME280;59852;43.086;25.634;2022-09-09T14:07:07;98609.09;;;27.92;41.04
58668;BME280;59852;43.086;25.634;2022-09-09T14:09:34;98605.59;;;27.92;40.30
58668;BME280;59852;43.086;25.634;2022-09-09T14:11:59;98605.38;;;27.93;40.24
58668;BME280;59852;43.086;25.634;2022-09-09T14:14:25;98605.00;;;27.90;39.72
58668;BME280;59852;43.086;25.634;2022-09-09T14:16:50;98597.97;;;27.89;40.13
58668;BME280;59852;43.086;25.634;2022-09-09T14:19:16;98599.03;;;27.88;41.03
58668;BME280;59852;43.086;25.634;2022-09-09T14:21:41;98612.94;;;27.85;41.42
58668;BME280;59852;43.086;25.634;2022-09-09T14:24:07;98609.03;;;27.81;41.60
58668;BME280;59852;43.086;25.634;2022-09-09T14:26:32;98602.59;;;27.82;41.00
58668;BME280;59852;43.086;25.634;2022-09-09T14:28:57;98600.16;;;27.80;40.14
58668;BME280;59852;43.086;25.634;2022-09-09T14:31:23;98591.84;;;27.82;40.96
58668;BME280;59852;43.086;25.634;2022-09-09T14:33:49;98606.19;;;27.76;41.09
58668;BME280;59852;43.086;25.634;2022-09-09T14:36:15;98602.09;;;27.73;41.38
58668;BME280;59852;43.086;25.634;2022-09-09T14:38:41;98597.84;;;27.65;40.81
58668;BME280;59852;43.086;25.634;2022-09-09T14:41:13;98597.88;;;27.59;41.49
58668;BME280;59852;43.086;25.634;2022-09-09T14:43:40;98593.75;;;27.56;41.88
58668;BME280;59852;43.086;25.634;2022-09-09T14:46:06;98596.06;;;27.53;41.32
58668;BME280;59852;43.086;25.634;2022-09-09T14:48:32;98593.81;;;27.50;41.78
58668;BME280;59852;43.086;25.634;2022-09-09T14:51:04;98595.97;;;27.41;42.17
58668;BME280;59852;43.086;25.634;2022-09-09T14:53:29;98605.28;;;27.38;41.85